Hallie T — WDI8725 — position and weather

sailwx.info

Track history (hours):
 
Tides and Currents Weather Stations Pressure Air Temp Water Temp Dewpoint Dewpoint Depression Visibility Wind Speed Wind Dir Waves Ship Positions

Hallie T

Owner: Terral RiverService, Inc., Lake Providence, LA. More information available from US FCC via Universal Licensing System and Coast Guard Vessel Documentation Center.

Last reported at 2018-May-26 21:30 UTC. Time now 2018-May-26 21:44 UTC.
Position N 29°58' W 093°11'.

Length 30 m.

Type: Towing. MMSI: 367741510.

Date/timePositionNaut miles runAvg speedWind from/ knotsBaromVisibWave heightAir tempDewpointWater temp
2018-May-26 21:30N 29°58' W 093°11'0 0.4
2018-May-26 21:00N 29°58' W 093°11'0 0.8
2018-May-26 20:31N 29°58' W 093°11'2 4.0
2018-May-26 20:00N 29°56' W 093°09'2 4.2
2018-May-26 19:30N 29°56' W 093°07'2 3.8
2018-May-26 18:56N 29°56' W 093°04'1 1.0
2018-May-26 17:54N 29°56' W 093°03'0 0.0
2018-May-26 17:30N 29°56' W 093°03'0 0.0
2018-May-26 17:00N 29°56' W 093°03'0 0.0
2018-May-26 16:29N 29°56' W 093°03'0 0.0
2018-May-26 15:54N 29°56' W 093°03'0 0.0
2018-May-26 15:17N 29°56' W 093°03'0 0.0
2018-May-26 15:00N 29°56' W 093°03'0 0.0
2018-May-26 14:31N 29°56' W 093°03'0 0.0
2018-May-26 14:00N 29°56' W 093°03'1 1.9
2018-May-26 13:30N 29°56' W 093°02'0 0.0
2018-May-26 09:29N 29°56' W 093°02'1 2.7
2018-May-26 08:58N 29°56' W 093°03'1 2.9
2018-May-26 08:30N 29°56' W 093°05'2 4.3
2018-May-26 08:00N 29°56' W 093°07'1 2.8
2018-May-26 07:30N 29°56' W 093°09'1 2.9
2018-May-26 07:00N 29°57' W 093°10'1 2.8
2018-May-26 06:30N 29°58' W 093°11'3 2.9
2018-May-26 05:30N 30°00' W 093°14'1 3.0
2018-May-26 05:00N 30°02' W 093°14'1 2.7
2018-May-26 04:30N 30°02' W 093°16'1 2.6
2018-May-26 04:00N 30°04' W 093°16'1 2.4
2018-May-26 03:31N 30°05' W 093°17'1 2.2
2018-May-26 03:00N 30°05' W 093°18'0 0.9
2018-May-26 02:30N 30°06' W 093°18'1 1.4
2018-May-26 02:00N 30°06' W 093°19'0 0.7
2018-May-26 01:30N 30°06' W 093°19'0 0.0
2018-May-26 01:00N 30°06' W 093°19'0 0.1
2018-May-26 00:30N 30°06' W 093°19'0 0.0
2018-May-26 00:00N 30°06' W 093°19'0 0.0
2018-May-25 23:30N 30°06' W 093°19'0 0.0
2018-May-25 23:00N 30°06' W 093°19'0 0.0
2018-May-25 22:30N 30°06' W 093°19'0 0.0
2018-May-25 22:00N 30°06' W 093°19'0 0.0
2018-May-25 21:30N 30°06' W 093°19'0 0.0
2018-May-25 20:59N 30°06' W 093°19'0 0.0
2018-May-25 20:30N 30°06' W 093°19'0 0.0
2018-May-25 20:00N 30°06' W 093°19'0 0.0
2018-May-25 19:30N 30°06' W 093°19'0 0.0
2018-May-25 19:00N 30°06' W 093°19'0 0.0
2018-May-25 18:30N 30°06' W 093°19'0 0.0
2018-May-25 17:58N 30°06' W 093°19'0 0.0
2018-May-25 17:30N 30°06' W 093°19'0 0.0
2018-May-25 17:00N 30°06' W 093°19'0 0.0
2018-May-25 16:29N 30°06' W 093°19'0 0.0
2018-May-25 16:00N 30°06' W 093°19'0 0.0
2018-May-25 15:30N 30°06' W 093°19'0 0.0
2018-May-25 15:00N 30°06' W 093°19'0 0.0
2018-May-25 14:28N 30°06' W 093°19'0 0.0
2018-May-25 13:57N 30°06' W 093°19'0 0.0
2018-May-25 13:29N 30°06' W 093°19'0 0.0
2018-May-25 13:00N 30°06' W 093°19'0 0.0
2018-May-25 12:30N 30°06' W 093°19'0 0.0
2018-May-25 12:00N 30°06' W 093°19'0 0.0
2018-May-25 11:29N 30°06' W 093°19'0 0.0
2018-May-25 10:59N 30°06' W 093°19'0 0.0
2018-May-25 10:30N 30°06' W 093°19'0 0.0
2018-May-25 09:59N 30°06' W 093°19'0 0.0
2018-May-25 09:28N 30°06' W 093°19'0 0.0
2018-May-25 08:59N 30°06' W 093°19'0 0.0
2018-May-25 08:28N 30°06' W 093°19'0 0.0
2018-May-25 07:58N 30°06' W 093°19'0 0.0
2018-May-25 07:22N 30°06' W 093°19'0 0.0
2018-May-25 07:00N 30°06' W 093°19'0 0.0
2018-May-25 06:30N 30°06' W 093°19'0 0.0
2018-May-25 06:00N 30°06' W 093°19'0 0.0
2018-May-25 05:30N 30°06' W 093°19'0 0.0
2018-May-25 05:00N 30°06' W 093°19'0 0.0
2018-May-25 04:30N 30°06' W 093°19'0 0.0
2018-May-25 04:00N 30°06' W 093°19'0 0.0
2018-May-25 03:30N 30°06' W 093°19'0 0.0
2018-May-25 03:00N 30°06' W 093°19'0 0.0
2018-May-25 02:30N 30°06' W 093°19'0 0.0
2018-May-25 02:00N 30°06' W 093°19'0 0.0
2018-May-25 01:31N 30°06' W 093°19'0 0.0
2018-May-25 01:00N 30°06' W 093°19'0 0.0
2018-May-25 00:30N 30°06' W 093°19'0 0.0
2018-May-25 00:00N 30°06' W 093°19'0 0.0
2018-May-24 23:30N 30°06' W 093°19'0 0.0
2018-May-24 23:00N 30°06' W 093°19'0 0.2
2018-May-24 22:29N 30°06' W 093°19'0 0.0
2018-May-24 22:00N 30°06' W 093°19'0 0.0
2018-May-24 21:30N 30°06' W 093°19'0 0.0
2018-May-24 21:00N 30°06' W 093°19'0 0.0
2018-May-24 20:30N 30°06' W 093°19'0 0.0
2018-May-24 20:00N 30°06' W 093°19'0 0.0
2018-May-24 19:30N 30°06' W 093°19'0 0.0
2018-May-24 19:00N 30°06' W 093°19'0 0.0
2018-May-24 18:31N 30°06' W 093°19'0 0.0
2018-May-24 18:00N 30°06' W 093°19'0 0.0
2018-May-24 17:30N 30°06' W 093°19'0 0.0
2018-May-24 17:00N 30°06' W 093°19'0 0.0
2018-May-24 16:30N 30°06' W 093°19'0 0.0
2018-May-24 16:00N 30°06' W 093°19'0 0.0
2018-May-24 15:30N 30°06' W 093°19'0 0.0
2018-May-24 15:00N 30°06' W 093°19'0 0.0
2018-May-24 14:30N 30°06' W 093°19'0 0.0
2018-May-24 14:00N 30°06' W 093°19'0 0.0
2018-May-24 13:30N 30°06' W 093°19'0 0.0
2018-May-24 09:00N 30°06' W 093°19'0 0.0
2018-May-24 08:30N 30°06' W 093°19'0 0.1
2018-May-24 08:00N 30°06' W 093°19'1 2.7
2018-May-24 07:30N 30°05' W 093°20'2 3.5
2018-May-24 07:00N 30°04' W 093°21'1 2.7
2018-May-24 06:30N 30°04' W 093°23'1 2.7
2018-May-24 06:00N 30°04' W 093°24'2 4.8
2018-May-24 05:30N 30°04' W 093°27'2 4.7
2018-May-24 05:00N 30°04' W 093°30'2 4.9
2018-May-24 04:30N 30°04' W 093°33'2 4.9
2018-May-24 04:00N 30°04' W 093°36'2 4.9
2018-May-24 03:30N 30°04' W 093°38'3 5.3
2018-May-24 03:00N 30°03' W 093°42'2 4.5
2018-May-24 02:30N 30°03' W 093°44'1 1.6
2018-May-24 02:00N 30°02' W 093°44'3 5.6
2018-May-24 01:30N 29°60' W 093°47'3 6.5
2018-May-24 01:00N 29°59' W 093°50'3 5.2
2018-May-24 00:30N 29°57' W 093°52'3 6.5
2018-May-24 00:00N 29°54' W 093°54'3 6.5
2018-May-23 23:30N 29°51' W 093°56'3 5.9
2018-May-23 23:00N 29°49' W 093°59'3 5.3
2018-May-23 22:30N 29°47' W 094°01'3 5.2
2018-May-23 22:00N 29°46' W 094°03'3 5.0
2018-May-23 21:30N 29°44' W 094°06'2 4.8
2018-May-23 21:00N 29°43' W 094°08'2 4.6
2018-May-23 20:30N 29°41' W 094°10'2 4.6
2018-May-23 20:01N 29°41' W 094°12'2 3.8
2018-May-23 19:30N 29°40' W 094°14'2 4.7
2018-May-23 19:00N 29°39' W 094°17'2 4.4
2018-May-23 18:30N 29°38' W 094°19'2 4.4
2018-May-23 18:00N 29°37' W 094°21'2 4.1
2018-May-23 17:30N 29°36' W 094°23'2 3.5
2018-May-23 16:59N 29°34' W 094°25'2 4.5
2018-May-23 16:28N 29°34' W 094°28'15 4.9
2018-May-23 13:18N 29°26' W 094°43'2 4.8
2018-May-23 12:57N 29°25' W 094°44'2 4.7
2018-May-23 12:30N 29°23' W 094°46'2 4.5
2018-May-23 12:00N 29°22' W 094°48'4 7.8
2018-May-23 11:29N 29°26' W 094°50'4 7.6
2018-May-23 11:00N 29°29' W 094°52'4 7.4
2018-May-23 10:31N 29°33' W 094°54'4 7.0
2018-May-23 10:00N 29°35' W 094°56'3 5.4
2018-May-23 09:30N 29°38' W 094°58'3 6.4
2018-May-23 09:00N 29°41' W 094°59'3 6.6
2018-May-23 08:29N 29°44' W 095°01'7 4.8
2018-May-23 07:06N 29°44' W 095°09'1 6.1
2018-May-23 07:00N 29°45' W 095°10'1 0.5
2018-May-23 05:24N 29°45' W 095°10'0 0.0
2018-May-23 03:59N 29°45' W 095°10'0 0.0
2018-May-23 03:15N 29°45' W 095°10'0 0.1
2018-May-23 02:52N 29°45' W 095°10'0 0.0
2018-May-23 01:26N 29°45' W 095°10'0 0.4
2018-May-23 00:35N 29°45' W 095°11'0 0.2
2018-May-23 00:25N 29°45' W 095°11'0 0.5
2018-May-22 23:50N 29°45' W 095°10'0 0.4
2018-May-22 23:13N 29°45' W 095°11'0 0.0
2018-May-22 20:12N 29°45' W 095°11'0 0.0
2018-May-22 19:46N 29°45' W 095°11'0 0.0
2018-May-22 17:57N 29°45' W 095°11'0 0.0
2018-May-22 17:27N 29°45' W 095°11'0 0.0
2018-May-22 16:55N 29°45' W 095°11'0 0.0
2018-May-22 16:30N 29°45' W 095°11'0 0.0
2018-May-22 15:48N 29°45' W 095°11'0 0.0
2018-May-22 14:44N 29°45' W 095°11'0 0.0
2018-May-22 14:19N 29°45' W 095°11'0 0.0
2018-May-22 13:41N 29°45' W 095°11'0 0.0
2018-May-22 13:30N 29°45' W 095°11'0 0.0
2018-May-22 13:00N 29°45' W 095°11'0 0.0
2018-May-22 12:29N 29°45' W 095°11'0 0.0
2018-May-22 12:00N 29°45' W 095°11'0 0.0
2018-May-22 11:30N 29°45' W 095°11'0 0.0
2018-May-22 11:00N 29°45' W 095°11'0 0.0
2018-May-22 10:30N 29°45' W 095°11'0 0.0
2018-May-22 09:58N 29°45' W 095°11'0 0.0
2018-May-22 09:30N 29°45' W 095°11'0 0.0
2018-May-22 08:56N 29°45' W 095°11'0 0.0
2018-May-22 08:28N 29°45' W 095°11'0 0.0
2018-May-22 07:56N 29°45' W 095°11'0 0.0
2018-May-22 07:22N 29°45' W 095°11'0 0.0
2018-May-22 07:00N 29°45' W 095°11'0 0.0
2018-May-22 06:30N 29°45' W 095°11'0 0.0
2018-May-22 05:58N 29°45' W 095°11'0 0.0
2018-May-22 05:13N 29°45' W 095°11'0 0.0
2018-May-22 05:00N 29°45' W 095°11'0 0.5
2018-May-22 04:30N 29°45' W 095°11'0 0.8
2018-May-22 04:00N 29°45' W 095°10'0 0.1
2018-May-22 03:29N 29°45' W 095°10'0 0.0
2018-May-22 02:58N 29°45' W 095°10'0 0.0
2018-May-22 02:30N 29°45' W 095°10'0 0.1
2018-May-22 02:00N 29°45' W 095°10'0 0.2
2018-May-22 01:23N 29°45' W 095°10'0 1.0
2018-May-22 01:00N 29°45' W 095°10'3 5.0
2018-May-22 00:28N 29°44' W 095°07'3 5.6
2018-May-21 23:59N 29°45' W 095°04'3 5.7
2018-May-21 23:24N 29°43' W 095°01'3 6.8
2018-May-21 23:00N 29°41' W 094°59'4 8.5
2018-May-21 22:30N 29°37' W 094°57'4 8.9
2018-May-21 22:00N 29°33' W 094°55'5 9.1
2018-May-21 21:30N 29°30' W 094°52'5 9.3
2018-May-21 20:59N 29°25' W 094°50'4 7.4
2018-May-21 20:30N 29°23' W 094°47'4 7.2
2018-May-21 20:00N 29°25' W 094°44'15 5.3
2018-May-21 17:11N 29°32' W 094°29'2 6.8
2018-May-21 16:57N 29°34' W 094°28'1 1.8
2018-May-21 16:22N 29°34' W 094°27'2 6.0
2018-May-21 16:00N 29°35' W 094°25'4 6.7
2018-May-21 15:27N 29°37' W 094°21'3 7.4
2018-May-21 15:00N 29°38' W 094°18'3 6.5
2018-May-21 14:30N 29°40' W 094°14'4 7.4
2018-May-21 14:00N 29°41' W 094°10'1 2.0
2018-May-21 13:29N 29°42' W 094°09'3 5.9
2018-May-21 13:00N 29°43' W 094°07'4 7.4
2018-May-21 12:30N 29°46' W 094°03'4 7.5
2018-May-21 12:00N 29°48' W 094°00'3 6.7
2018-May-21 11:30N 29°50' W 093°57'5 9.3
2018-May-21 11:00N 29°54' W 093°54'4 8.8
2018-May-21 10:30N 29°58' W 093°51'4 8.1
2018-May-21 10:00N 29°60' W 093°47'4 7.6
2018-May-21 09:30N 30°02' W 093°44'4 7.3
2018-May-21 09:00N 30°04' W 093°40'3 6.9
2018-May-21 08:30N 30°04' W 093°36'3 6.7
2018-May-21 08:00N 30°04' W 093°32'3 6.4
2018-May-21 07:30N 30°04' W 093°29'3 5.9
2018-May-21 07:00N 30°04' W 093°25'3 5.8
2018-May-21 06:30N 30°04' W 093°22'2 4.4
2018-May-21 06:00N 30°05' W 093°20'0 0.8
2018-May-21 05:30N 30°05' W 093°20'0 0.6
2018-May-21 05:00N 30°06' W 093°20'3 5.6
2018-May-21 04:30N 30°08' W 093°20'3 7.0
2018-May-21 04:01N 30°11' W 093°18'3 5.6
2018-May-21 03:31N 30°13' W 093°16'1 1.7
2018-May-21 02:59N 30°14' W 093°15'0 0.0
2018-May-21 02:30N 30°14' W 093°15'0 0.0
2018-May-21 02:00N 30°14' W 093°15'0 0.0
2018-May-21 01:30N 30°14' W 093°15'0 0.0
2018-May-21 01:00N 30°14' W 093°15'0 0.0
2018-May-21 00:30N 30°14' W 093°15'0 0.0
2018-May-21 00:01N 30°14' W 093°15'0 0.0
2018-May-20 23:29N 30°14' W 093°15'0 0.0
2018-May-20 23:00N 30°14' W 093°15'0 0.0
2018-May-20 22:30N 30°14' W 093°15'0 0.1
2018-May-20 22:00N 30°14' W 093°15'0 0.0
2018-May-20 21:29N 30°14' W 093°15'0 0.0
2018-May-20 21:00N 30°14' W 093°15'0 0.1
2018-May-20 20:30N 30°14' W 093°15'1 1.4
2018-May-20 20:00N 30°15' W 093°15'1 2.0
2018-May-20 19:30N 30°15' W 093°14'1 2.9
2018-May-20 19:00N 30°15' W 093°12'1 2.9
2018-May-20 18:30N 30°15' W 093°14'1 2.8
2018-May-20 17:59N 30°14' W 093°15'0 0.2
2018-May-20 17:30N 30°14' W 093°15'0 0.1
2018-May-20 17:00N 30°14' W 093°15'0 0.0
2018-May-20 16:30N 30°14' W 093°15'0 0.0
2018-May-20 16:01N 30°14' W 093°15'0 0.0
2018-May-20 15:30N 30°14' W 093°15'0 0.0
2018-May-20 15:00N 30°14' W 093°15'0 0.0
2018-May-20 14:30N 30°14' W 093°15'0 0.1
2018-May-20 13:56N 30°14' W 093°15'0 0.2
2018-May-20 13:30N 30°14' W 093°15'0 0.1
2018-May-20 13:00N 30°14' W 093°15'0 0.0
2018-May-20 12:29N 30°14' W 093°15'0 0.0
2018-May-20 12:00N 30°14' W 093°15'0 0.0
2018-May-20 11:28N 30°14' W 093°15'0 0.0
2018-May-20 11:01N 30°14' W 093°15'0 0.0
2018-May-20 10:30N 30°14' W 093°15'0 0.0
2018-May-20 10:00N 30°14' W 093°15'0 0.0
2018-May-20 09:30N 30°14' W 093°15'0 0.0
2018-May-20 09:00N 30°14' W 093°15'0 0.0
2018-May-20 08:27N 30°14' W 093°15'0 0.0
2018-May-20 07:58N 30°14' W 093°15'0 0.0
2018-May-20 07:30N 30°14' W 093°15'0 0.0
2018-May-20 07:00N 30°14' W 093°15'0 0.0
2018-May-20 06:30N 30°14' W 093°15'0 0.0
2018-May-20 05:59N 30°14' W 093°15'0 0.0
2018-May-20 05:30N 30°14' W 093°15'0 0.0
2018-May-20 05:00N 30°14' W 093°15'0 0.0
2018-May-20 04:29N 30°14' W 093°15'0 0.0
2018-May-20 04:00N 30°14' W 093°15'0 0.0
2018-May-20 03:29N 30°14' W 093°15'0 0.0
2018-May-20 03:00N 30°14' W 093°15'0 0.0
2018-May-20 02:30N 30°14' W 093°15'0 0.0
2018-May-20 02:00N 30°14' W 093°15'0 0.0
2018-May-20 01:30N 30°14' W 093°15'0 0.0
2018-May-20 01:00N 30°14' W 093°15'0 0.1
2018-May-20 00:31N 30°14' W 093°15'0 0.1
2018-May-20 00:00N 30°14' W 093°15'0 0.0
2018-May-19 23:29N 30°14' W 093°15'0 0.0
2018-May-19 23:00N 30°14' W 093°15'0 0.0
2018-May-19 22:30N 30°14' W 093°15'0 0.1
2018-May-19 22:00N 30°14' W 093°15'0 0.1
2018-May-19 21:30N 30°14' W 093°15'0 0.2
2018-May-19 21:00N 30°14' W 093°15'0 0.2
2018-May-19 20:30N 30°14' W 093°15'0 0.0
2018-May-19 20:00N 30°14' W 093°15'0 0.0
2018-May-19 19:30N 30°14' W 093°15'0 0.0
2018-May-19 19:00N 30°14' W 093°15'0 0.0
2018-May-19 18:30N 30°14' W 093°15'0 0.1
2018-May-19 18:00N 30°14' W 093°15'0 0.0
2018-May-19 17:30N 30°14' W 093°15'0 0.2
2018-May-19 17:00N 30°14' W 093°15'0 0.0
2018-May-19 16:30N 30°14' W 093°15'0 0.0
2018-May-19 16:00N 30°14' W 093°15'0 0.0
2018-May-19 15:30N 30°14' W 093°15'0 0.0
2018-May-19 15:00N 30°14' W 093°15'0 0.3
2018-May-19 14:30N 30°14' W 093°15'0 0.0
2018-May-19 14:00N 30°14' W 093°15'0 0.2
2018-May-19 13:30N 30°14' W 093°15'0 0.0
2018-May-19 13:00N 30°14' W 093°15'0 0.0
2018-May-19 12:30N 30°14' W 093°15'0 0.0
2018-May-19 12:00N 30°14' W 093°15'0 0.0
2018-May-19 11:30N 30°14' W 093°15'0 0.0
2018-May-19 11:00N 30°14' W 093°15'0 0.0
2018-May-19 10:30N 30°14' W 093°15'0 0.0
2018-May-19 10:00N 30°14' W 093°15'0 0.0
2018-May-19 09:30N 30°14' W 093°15'0 0.0
2018-May-19 09:00N 30°14' W 093°15'0 0.0
2018-May-19 08:30N 30°14' W 093°15'0 0.0
2018-May-19 08:00N 30°14' W 093°15'0 0.0
2018-May-19 07:30N 30°14' W 093°15'0 0.0
2018-May-19 07:00N 30°14' W 093°15'0 0.0
2018-May-19 06:30N 30°14' W 093°15'0 0.0
2018-May-19 06:00N 30°14' W 093°15'0 0.0
2018-May-19 05:30N 30°14' W 093°15'0 0.0
2018-May-19 05:00N 30°14' W 093°15'0 0.0
2018-May-19 04:31N 30°14' W 093°15'0 0.0
2018-May-19 04:00N 30°14' W 093°15'0 0.0
2018-May-19 03:30N 30°14' W 093°15'0 0.0
2018-May-19 03:00N 30°14' W 093°15'0 0.0
2018-May-19 02:30N 30°14' W 093°15'0 0.0
2018-May-19 02:00N 30°14' W 093°15'0 0.0
2018-May-19 01:30N 30°14' W 093°15'0 0.0
2018-May-19 01:00N 30°14' W 093°15'0 0.0
2018-May-19 00:30N 30°14' W 093°15'0 0.0
2018-May-19 00:00N 30°14' W 093°15'0 0.1
2018-May-18 23:30N 30°14' W 093°15'0 0.1
2018-May-18 23:00N 30°14' W 093°15'0 0.0
2018-May-18 22:30N 30°14' W 093°15'1 1.6
2018-May-18 22:00N 30°13' W 093°16'3 5.6
2018-May-18 21:30N 30°11' W 093°18'3 6.0
2018-May-18 21:00N 30°09' W 093°20'3 6.2
2018-May-18 20:30N 30°06' W 093°20'2 3.6
2018-May-18 20:00N 30°05' W 093°18'1 1.2
2018-May-18 19:30N 30°05' W 093°17'1 2.7
2018-May-18 19:00N 30°04' W 093°16'0 0.5
2018-May-18 18:29N 30°04' W 093°16'0 0.0
2018-May-18 18:00N 30°04' W 093°16'0 0.5
2018-May-18 17:30N 30°03' W 093°16'2 3.5
2018-May-18 17:00N 30°02' W 093°15'2 3.5
2018-May-18 16:30N 30°00' W 093°14'2 3.9
2018-May-18 16:00N 29°59' W 093°12'2 4.1
2018-May-18 15:30N 29°57' W 093°11'2 3.9
2018-May-18 15:00N 29°56' W 093°09'2 4.1
2018-May-18 14:30N 29°56' W 093°07'2 3.7
2018-May-18 13:58N 29°56' W 093°04'6 4.2
2018-May-18 12:31N 29°56' W 092°57'0 4.6
2018-May-18 12:30N 29°56' W 092°57'2 3.3
2018-May-18 11:57N 29°56' W 092°55'0 1.1
2018-May-18 11:30N 29°56' W 092°55'2 4.0
2018-May-18 11:00N 29°57' W 092°53'2 4.6
2018-May-18 10:30N 29°58' W 092°50'2 4.9
2018-May-18 10:00N 29°58' W 092°47'2 4.5
2018-May-18 09:29N 29°58' W 092°45'1 2.4
2018-May-18 09:00N 29°57' W 092°43'2 3.7
2018-May-18 08:30N 29°57' W 092°42'2 3.8
2018-May-18 07:54N 29°56' W 092°39'2 4.6
2018-May-18 07:26N 29°55' W 092°37'2 4.4
2018-May-18 07:00N 29°55' W 092°35'3 4.4
2018-May-18 06:22N 29°54' W 092°31'2 4.4
2018-May-18 06:00N 29°54' W 092°30'2 4.5
2018-May-18 05:30N 29°54' W 092°27'2 4.5
2018-May-18 04:58N 29°53' W 092°24'2 4.4
2018-May-18 04:26N 29°52' W 092°22'2 3.4
2018-May-18 03:52N 29°51' W 092°20'1 2.6
2018-May-18 03:26N 29°50' W 092°19'  
Track history (hours):
 
Tides and Currents Weather Stations Pressure Air Temp Water Temp Dewpoint Dewpoint Depression Visibility Wind Speed Wind Dir Waves Ship Positions

Hallie T

Owner: Terral RiverService, Inc., Lake Providence, LA. More information available from US FCC via Universal Licensing System and Coast Guard Vessel Documentation Center.

Last reported at 2018-May-26 21:30 UTC. Time now 2018-May-26 21:44 UTC.
Position N 29°58' W 093°11'.

Length 30 m.

Type: Towing. MMSI: 367741510.

Date/timePositionNaut miles runAvg speedWind from/ knotsBaromVisibWave heightAir tempDewpointWater temp
2018-May-26 21:30N 29°58' W 093°11'0 0.4
2018-May-26 21:00N 29°58' W 093°11'0 0.8
2018-May-26 20:31N 29°58' W 093°11'2 4.0
2018-May-26 20:00N 29°56' W 093°09'2 4.2
2018-May-26 19:30N 29°56' W 093°07'2 3.8
2018-May-26 18:56N 29°56' W 093°04'1 1.0
2018-May-26 17:54N 29°56' W 093°03'0 0.0
2018-May-26 17:30N 29°56' W 093°03'0 0.0
2018-May-26 17:00N 29°56' W 093°03'0 0.0
2018-May-26 16:29N 29°56' W 093°03'0 0.0
2018-May-26 15:54N 29°56' W 093°03'0 0.0
2018-May-26 15:17N 29°56' W 093°03'0 0.0
2018-May-26 15:00N 29°56' W 093°03'0 0.0
2018-May-26 14:31N 29°56' W 093°03'0 0.0
2018-May-26 14:00N 29°56' W 093°03'1 1.9
2018-May-26 13:30N 29°56' W 093°02'0 0.0
2018-May-26 09:29N 29°56' W 093°02'1 2.7
2018-May-26 08:58N 29°56' W 093°03'1 2.9
2018-May-26 08:30N 29°56' W 093°05'2 4.3
2018-May-26 08:00N 29°56' W 093°07'1 2.8
2018-May-26 07:30N 29°56' W 093°09'1 2.9
2018-May-26 07:00N 29°57' W 093°10'1 2.8
2018-May-26 06:30N 29°58' W 093°11'3 2.9
2018-May-26 05:30N 30°00' W 093°14'1 3.0
2018-May-26 05:00N 30°02' W 093°14'1 2.7
2018-May-26 04:30N 30°02' W 093°16'1 2.6
2018-May-26 04:00N 30°04' W 093°16'1 2.4
2018-May-26 03:31N 30°05' W 093°17'1 2.2
2018-May-26 03:00N 30°05' W 093°18'0 0.9
2018-May-26 02:30N 30°06' W 093°18'1 1.4
2018-May-26 02:00N 30°06' W 093°19'0 0.7
2018-May-26 01:30N 30°06' W 093°19'0 0.0
2018-May-26 01:00N 30°06' W 093°19'0 0.1
2018-May-26 00:30N 30°06' W 093°19'0 0.0
2018-May-26 00:00N 30°06' W 093°19'0 0.0
2018-May-25 23:30N 30°06' W 093°19'0 0.0
2018-May-25 23:00N 30°06' W 093°19'0 0.0
2018-May-25 22:30N 30°06' W 093°19'0 0.0
2018-May-25 22:00N 30°06' W 093°19'0 0.0
2018-May-25 21:30N 30°06' W 093°19'0 0.0
2018-May-25 20:59N 30°06' W 093°19'0 0.0
2018-May-25 20:30N 30°06' W 093°19'0 0.0
2018-May-25 20:00N 30°06' W 093°19'0 0.0
2018-May-25 19:30N 30°06' W 093°19'0 0.0
2018-May-25 19:00N 30°06' W 093°19'0 0.0
2018-May-25 18:30N 30°06' W 093°19'0 0.0
2018-May-25 17:58N 30°06' W 093°19'0 0.0
2018-May-25 17:30N 30°06' W 093°19'0 0.0
2018-May-25 17:00N 30°06' W 093°19'0 0.0
2018-May-25 16:29N 30°06' W 093°19'0 0.0
2018-May-25 16:00N 30°06' W 093°19'0 0.0
2018-May-25 15:30N 30°06' W 093°19'0 0.0
2018-May-25 15:00N 30°06' W 093°19'0 0.0
2018-May-25 14:28N 30°06' W 093°19'0 0.0
2018-May-25 13:57N 30°06' W 093°19'0 0.0
2018-May-25 13:29N 30°06' W 093°19'0 0.0
2018-May-25 13:00N 30°06' W 093°19'0 0.0
2018-May-25 12:30N 30°06' W 093°19'0 0.0
2018-May-25 12:00N 30°06' W 093°19'0 0.0
2018-May-25 11:29N 30°06' W 093°19'0 0.0
2018-May-25 10:59N 30°06' W 093°19'0 0.0
2018-May-25 10:30N 30°06' W 093°19'0 0.0
2018-May-25 09:59N 30°06' W 093°19'0 0.0
2018-May-25 09:28N 30°06' W 093°19'0 0.0
2018-May-25 08:59N 30°06' W 093°19'0 0.0
2018-May-25 08:28N 30°06' W 093°19'0 0.0
2018-May-25 07:58N 30°06' W 093°19'0 0.0
2018-May-25 07:22N 30°06' W 093°19'0 0.0
2018-May-25 07:00N 30°06' W 093°19'0 0.0
2018-May-25 06:30N 30°06' W 093°19'0 0.0
2018-May-25 06:00N 30°06' W 093°19'0 0.0
2018-May-25 05:30N 30°06' W 093°19'0 0.0
2018-May-25 05:00N 30°06' W 093°19'0 0.0
2018-May-25 04:30N 30°06' W 093°19'0 0.0
2018-May-25 04:00N 30°06' W 093°19'0 0.0
2018-May-25 03:30N 30°06' W 093°19'0 0.0
2018-May-25 03:00N 30°06' W 093°19'0 0.0
2018-May-25 02:30N 30°06' W 093°19'0 0.0
2018-May-25 02:00N 30°06' W 093°19'0 0.0
2018-May-25 01:31N 30°06' W 093°19'0 0.0
2018-May-25 01:00N 30°06' W 093°19'0 0.0
2018-May-25 00:30N 30°06' W 093°19'0 0.0
2018-May-25 00:00N 30°06' W 093°19'0 0.0
2018-May-24 23:30N 30°06' W 093°19'0 0.0
2018-May-24 23:00N 30°06' W 093°19'0 0.2
2018-May-24 22:29N 30°06' W 093°19'0 0.0
2018-May-24 22:00N 30°06' W 093°19'0 0.0
2018-May-24 21:30N 30°06' W 093°19'0 0.0
2018-May-24 21:00N 30°06' W 093°19'0 0.0
2018-May-24 20:30N 30°06' W 093°19'0 0.0
2018-May-24 20:00N 30°06' W 093°19'0 0.0
2018-May-24 19:30N 30°06' W 093°19'0 0.0
2018-May-24 19:00N 30°06' W 093°19'0 0.0
2018-May-24 18:31N 30°06' W 093°19'0 0.0
2018-May-24 18:00N 30°06' W 093°19'0 0.0
2018-May-24 17:30N 30°06' W 093°19'0 0.0
2018-May-24 17:00N 30°06' W 093°19'0 0.0
2018-May-24 16:30N 30°06' W 093°19'0 0.0
2018-May-24 16:00N 30°06' W 093°19'0 0.0
2018-May-24 15:30N 30°06' W 093°19'0 0.0
2018-May-24 15:00N 30°06' W 093°19'0 0.0
2018-May-24 14:30N 30°06' W 093°19'0 0.0
2018-May-24 14:00N 30°06' W 093°19'0 0.0
2018-May-24 13:30N 30°06' W 093°19'0 0.0
2018-May-24 09:00N 30°06' W 093°19'0 0.0
2018-May-24 08:30N 30°06' W 093°19'0 0.1
2018-May-24 08:00N 30°06' W 093°19'1 2.7
2018-May-24 07:30N 30°05' W 093°20'2 3.5
2018-May-24 07:00N 30°04' W 093°21'1 2.7
2018-May-24 06:30N 30°04' W 093°23'1 2.7
2018-May-24 06:00N 30°04' W 093°24'2 4.8
2018-May-24 05:30N 30°04' W 093°27'2 4.7
2018-May-24 05:00N 30°04' W 093°30'2 4.9
2018-May-24 04:30N 30°04' W 093°33'2 4.9
2018-May-24 04:00N 30°04' W 093°36'2 4.9
2018-May-24 03:30N 30°04' W 093°38'3 5.3
2018-May-24 03:00N 30°03' W 093°42'2 4.5
2018-May-24 02:30N 30°03' W 093°44'1 1.6
2018-May-24 02:00N 30°02' W 093°44'3 5.6
2018-May-24 01:30N 29°60' W 093°47'3 6.5
2018-May-24 01:00N 29°59' W 093°50'3 5.2
2018-May-24 00:30N 29°57' W 093°52'3 6.5
2018-May-24 00:00N 29°54' W 093°54'3 6.5
2018-May-23 23:30N 29°51' W 093°56'3 5.9
2018-May-23 23:00N 29°49' W 093°59'3 5.3
2018-May-23 22:30N 29°47' W 094°01'3 5.2
2018-May-23 22:00N 29°46' W 094°03'3 5.0
2018-May-23 21:30N 29°44' W 094°06'2 4.8
2018-May-23 21:00N 29°43' W 094°08'2 4.6
2018-May-23 20:30N 29°41' W 094°10'2 4.6
2018-May-23 20:01N 29°41' W 094°12'2 3.8
2018-May-23 19:30N 29°40' W 094°14'2 4.7
2018-May-23 19:00N 29°39' W 094°17'2 4.4
2018-May-23 18:30N 29°38' W 094°19'2 4.4
2018-May-23 18:00N 29°37' W 094°21'2 4.1
2018-May-23 17:30N 29°36' W 094°23'2 3.5
2018-May-23 16:59N 29°34' W 094°25'2 4.5
2018-May-23 16:28N 29°34' W 094°28'15 4.9
2018-May-23 13:18N 29°26' W 094°43'2 4.8
2018-May-23 12:57N 29°25' W 094°44'2 4.7
2018-May-23 12:30N 29°23' W 094°46'2 4.5
2018-May-23 12:00N 29°22' W 094°48'4 7.8
2018-May-23 11:29N 29°26' W 094°50'4 7.6
2018-May-23 11:00N 29°29' W 094°52'4 7.4
2018-May-23 10:31N 29°33' W 094°54'4 7.0
2018-May-23 10:00N 29°35' W 094°56'3 5.4
2018-May-23 09:30N 29°38' W 094°58'3 6.4
2018-May-23 09:00N 29°41' W 094°59'3 6.6
2018-May-23 08:29N 29°44' W 095°01'7 4.8
2018-May-23 07:06N 29°44' W 095°09'1 6.1
2018-May-23 07:00N 29°45' W 095°10'1 0.5
2018-May-23 05:24N 29°45' W 095°10'0 0.0
2018-May-23 03:59N 29°45' W 095°10'0 0.0
2018-May-23 03:15N 29°45' W 095°10'0 0.1
2018-May-23 02:52N 29°45' W 095°10'0 0.0
2018-May-23 01:26N 29°45' W 095°10'0 0.4
2018-May-23 00:35N 29°45' W 095°11'0 0.2
2018-May-23 00:25N 29°45' W 095°11'0 0.5
2018-May-22 23:50N 29°45' W 095°10'0 0.4
2018-May-22 23:13N 29°45' W 095°11'0 0.0
2018-May-22 20:12N 29°45' W 095°11'0 0.0
2018-May-22 19:46N 29°45' W 095°11'0 0.0
2018-May-22 17:57N 29°45' W 095°11'0 0.0
2018-May-22 17:27N 29°45' W 095°11'0 0.0
2018-May-22 16:55N 29°45' W 095°11'0 0.0
2018-May-22 16:30N 29°45' W 095°11'0 0.0
2018-May-22 15:48N 29°45' W 095°11'0 0.0
2018-May-22 14:44N 29°45' W 095°11'0 0.0
2018-May-22 14:19N 29°45' W 095°11'0 0.0
2018-May-22 13:41N 29°45' W 095°11'0 0.0
2018-May-22 13:30N 29°45' W 095°11'0 0.0
2018-May-22 13:00N 29°45' W 095°11'0 0.0
2018-May-22 12:29N 29°45' W 095°11'0 0.0
2018-May-22 12:00N 29°45' W 095°11'0 0.0
2018-May-22 11:30N 29°45' W 095°11'0 0.0
2018-May-22 11:00N 29°45' W 095°11'0 0.0
2018-May-22 10:30N 29°45' W 095°11'0 0.0
2018-May-22 09:58N 29°45' W 095°11'0 0.0
2018-May-22 09:30N 29°45' W 095°11'0 0.0
2018-May-22 08:56N 29°45' W 095°11'0 0.0
2018-May-22 08:28N 29°45' W 095°11'0 0.0
2018-May-22 07:56N 29°45' W 095°11'0 0.0
2018-May-22 07:22N 29°45' W 095°11'0 0.0
2018-May-22 07:00N 29°45' W 095°11'0 0.0
2018-May-22 06:30N 29°45' W 095°11'0 0.0
2018-May-22 05:58N 29°45' W 095°11'0 0.0
2018-May-22 05:13N 29°45' W 095°11'0 0.0
2018-May-22 05:00N 29°45' W 095°11'0 0.5
2018-May-22 04:30N 29°45' W 095°11'0 0.8
2018-May-22 04:00N 29°45' W 095°10'0 0.1
2018-May-22 03:29N 29°45' W 095°10'0 0.0
2018-May-22 02:58N 29°45' W 095°10'0 0.0
2018-May-22 02:30N 29°45' W 095°10'0 0.1
2018-May-22 02:00N 29°45' W 095°10'0 0.2
2018-May-22 01:23N 29°45' W 095°10'0 1.0
2018-May-22 01:00N 29°45' W 095°10'3 5.0
2018-May-22 00:28N 29°44' W 095°07'3 5.6
2018-May-21 23:59N 29°45' W 095°04'3 5.7
2018-May-21 23:24N 29°43' W 095°01'3 6.8
2018-May-21 23:00N 29°41' W 094°59'4 8.5
2018-May-21 22:30N 29°37' W 094°57'4 8.9
2018-May-21 22:00N 29°33' W 094°55'5 9.1
2018-May-21 21:30N 29°30' W 094°52'5 9.3
2018-May-21 20:59N 29°25' W 094°50'4 7.4
2018-May-21 20:30N 29°23' W 094°47'4 7.2
2018-May-21 20:00N 29°25' W 094°44'15 5.3
2018-May-21 17:11N 29°32' W 094°29'2 6.8
2018-May-21 16:57N 29°34' W 094°28'1 1.8
2018-May-21 16:22N 29°34' W 094°27'2 6.0
2018-May-21 16:00N 29°35' W 094°25'4 6.7
2018-May-21 15:27N 29°37' W 094°21'3 7.4
2018-May-21 15:00N 29°38' W 094°18'3 6.5
2018-May-21 14:30N 29°40' W 094°14'4 7.4
2018-May-21 14:00N 29°41' W 094°10'1 2.0
2018-May-21 13:29N 29°42' W 094°09'3 5.9
2018-May-21 13:00N 29°43' W 094°07'4 7.4
2018-May-21 12:30N 29°46' W 094°03'4 7.5
2018-May-21 12:00N 29°48' W 094°00'3 6.7
2018-May-21 11:30N 29°50' W 093°57'5 9.3
2018-May-21 11:00N 29°54' W 093°54'4 8.8
2018-May-21 10:30N 29°58' W 093°51'4 8.1
2018-May-21 10:00N 29°60' W 093°47'4 7.6
2018-May-21 09:30N 30°02' W 093°44'4 7.3
2018-May-21 09:00N 30°04' W 093°40'3 6.9
2018-May-21 08:30N 30°04' W 093°36'3 6.7
2018-May-21 08:00N 30°04' W 093°32'3 6.4
2018-May-21 07:30N 30°04' W 093°29'3 5.9
2018-May-21 07:00N 30°04' W 093°25'3 5.8
2018-May-21 06:30N 30°04' W 093°22'2 4.4
2018-May-21 06:00N 30°05' W 093°20'0 0.8
2018-May-21 05:30N 30°05' W 093°20'0 0.6
2018-May-21 05:00N 30°06' W 093°20'3 5.6
2018-May-21 04:30N 30°08' W 093°20'3 7.0
2018-May-21 04:01N 30°11' W 093°18'3 5.6
2018-May-21 03:31N 30°13' W 093°16'1 1.7
2018-May-21 02:59N 30°14' W 093°15'0 0.0
2018-May-21 02:30N 30°14' W 093°15'0 0.0
2018-May-21 02:00N 30°14' W 093°15'0 0.0
2018-May-21 01:30N 30°14' W 093°15'0 0.0
2018-May-21 01:00N 30°14' W 093°15'0 0.0
2018-May-21 00:30N 30°14' W 093°15'0 0.0
2018-May-21 00:01N 30°14' W 093°15'0 0.0
2018-May-20 23:29N 30°14' W 093°15'0 0.0
2018-May-20 23:00N 30°14' W 093°15'0 0.0
2018-May-20 22:30N 30°14' W 093°15'0 0.1
2018-May-20 22:00N 30°14' W 093°15'0 0.0
2018-May-20 21:29N 30°14' W 093°15'0 0.0
2018-May-20 21:00N 30°14' W 093°15'0 0.1
2018-May-20 20:30N 30°14' W 093°15'1 1.4
2018-May-20 20:00N 30°15' W 093°15'1 2.0
2018-May-20 19:30N 30°15' W 093°14'1 2.9
2018-May-20 19:00N 30°15' W 093°12'1 2.9
2018-May-20 18:30N 30°15' W 093°14'1 2.8
2018-May-20 17:59N 30°14' W 093°15'0 0.2
2018-May-20 17:30N 30°14' W 093°15'0 0.1
2018-May-20 17:00N 30°14' W 093°15'0 0.0
2018-May-20 16:30N 30°14' W 093°15'0 0.0
2018-May-20 16:01N 30°14' W 093°15'0 0.0
2018-May-20 15:30N 30°14' W 093°15'0 0.0
2018-May-20 15:00N 30°14' W 093°15'0 0.0
2018-May-20 14:30N 30°14' W 093°15'0 0.1
2018-May-20 13:56N 30°14' W 093°15'0 0.2
2018-May-20 13:30N 30°14' W 093°15'0 0.1
2018-May-20 13:00N 30°14' W 093°15'0 0.0
2018-May-20 12:29N 30°14' W 093°15'0 0.0
2018-May-20 12:00N 30°14' W 093°15'0 0.0
2018-May-20 11:28N 30°14' W 093°15'0 0.0
2018-May-20 11:01N 30°14' W 093°15'0 0.0
2018-May-20 10:30N 30°14' W 093°15'0 0.0
2018-May-20 10:00N 30°14' W 093°15'0 0.0
2018-May-20 09:30N 30°14' W 093°15'0 0.0
2018-May-20 09:00N 30°14' W 093°15'0 0.0
2018-May-20 08:27N 30°14' W 093°15'0 0.0
2018-May-20 07:58N 30°14' W 093°15'0 0.0
2018-May-20 07:30N 30°14' W 093°15'0 0.0
2018-May-20 07:00N 30°14' W 093°15'0 0.0
2018-May-20 06:30N 30°14' W 093°15'0 0.0
2018-May-20 05:59N 30°14' W 093°15'0 0.0
2018-May-20 05:30N 30°14' W 093°15'0 0.0
2018-May-20 05:00N 30°14' W 093°15'0 0.0
2018-May-20 04:29N 30°14' W 093°15'0 0.0
2018-May-20 04:00N 30°14' W 093°15'0 0.0
2018-May-20 03:29N 30°14' W 093°15'0 0.0
2018-May-20 03:00N 30°14' W 093°15'0 0.0
2018-May-20 02:30N 30°14' W 093°15'0 0.0
2018-May-20 02:00N 30°14' W 093°15'0 0.0
2018-May-20 01:30N 30°14' W 093°15'0 0.0
2018-May-20 01:00N 30°14' W 093°15'0 0.1
2018-May-20 00:31N 30°14' W 093°15'0 0.1
2018-May-20 00:00N 30°14' W 093°15'0 0.0
2018-May-19 23:29N 30°14' W 093°15'0 0.0
2018-May-19 23:00N 30°14' W 093°15'0 0.0
2018-May-19 22:30N 30°14' W 093°15'0 0.1
2018-May-19 22:00N 30°14' W 093°15'0 0.1
2018-May-19 21:30N 30°14' W 093°15'0 0.2
2018-May-19 21:00N 30°14' W 093°15'0 0.2
2018-May-19 20:30N 30°14' W 093°15'0 0.0
2018-May-19 20:00N 30°14' W 093°15'0 0.0
2018-May-19 19:30N 30°14' W 093°15'0 0.0
2018-May-19 19:00N 30°14' W 093°15'0 0.0
2018-May-19 18:30N 30°14' W 093°15'0 0.1
2018-May-19 18:00N 30°14' W 093°15'0 0.0
2018-May-19 17:30N 30°14' W 093°15'0 0.2
2018-May-19 17:00N 30°14' W 093°15'0 0.0
2018-May-19 16:30N 30°14' W 093°15'0 0.0
2018-May-19 16:00N 30°14' W 093°15'0 0.0
2018-May-19 15:30N 30°14' W 093°15'0 0.0
2018-May-19 15:00N 30°14' W 093°15'0 0.3
2018-May-19 14:30N 30°14' W 093°15'0 0.0
2018-May-19 14:00N 30°14' W 093°15'0 0.2
2018-May-19 13:30N 30°14' W 093°15'0 0.0
2018-May-19 13:00N 30°14' W 093°15'0 0.0
2018-May-19 12:30N 30°14' W 093°15'0 0.0
2018-May-19 12:00N 30°14' W 093°15'0 0.0
2018-May-19 11:30N 30°14' W 093°15'0 0.0
2018-May-19 11:00N 30°14' W 093°15'0 0.0
2018-May-19 10:30N 30°14' W 093°15'0 0.0
2018-May-19 10:00N 30°14' W 093°15'0 0.0
2018-May-19 09:30N 30°14' W 093°15'0 0.0
2018-May-19 09:00N 30°14' W 093°15'0 0.0
2018-May-19 08:30N 30°14' W 093°15'0 0.0
2018-May-19 08:00N 30°14' W 093°15'0 0.0
2018-May-19 07:30N 30°14' W 093°15'0 0.0
2018-May-19 07:00N 30°14' W 093°15'0 0.0
2018-May-19 06:30N 30°14' W 093°15'0 0.0
2018-May-19 06:00N 30°14' W 093°15'0 0.0
2018-May-19 05:30N 30°14' W 093°15'0 0.0
2018-May-19 05:00N 30°14' W 093°15'0 0.0
2018-May-19 04:31N 30°14' W 093°15'0 0.0
2018-May-19 04:00N 30°14' W 093°15'0 0.0
2018-May-19 03:30N 30°14' W 093°15'0 0.0
2018-May-19 03:00N 30°14' W 093°15'0 0.0
2018-May-19 02:30N 30°14' W 093°15'0 0.0
2018-May-19 02:00N 30°14' W 093°15'0 0.0
2018-May-19 01:30N 30°14' W 093°15'0 0.0
2018-May-19 01:00N 30°14' W 093°15'0 0.0
2018-May-19 00:30N 30°14' W 093°15'0 0.0
2018-May-19 00:00N 30°14' W 093°15'0 0.1
2018-May-18 23:30N 30°14' W 093°15'0 0.1
2018-May-18 23:00N 30°14' W 093°15'0 0.0
2018-May-18 22:30N 30°14' W 093°15'1 1.6
2018-May-18 22:00N 30°13' W 093°16'3 5.6
2018-May-18 21:30N 30°11' W 093°18'3 6.0
2018-May-18 21:00N 30°09' W 093°20'3 6.2
2018-May-18 20:30N 30°06' W 093°20'2 3.6
2018-May-18 20:00N 30°05' W 093°18'1 1.2
2018-May-18 19:30N 30°05' W 093°17'1 2.7
2018-May-18 19:00N 30°04' W 093°16'0 0.5
2018-May-18 18:29N 30°04' W 093°16'0 0.0
2018-May-18 18:00N 30°04' W 093°16'0 0.5
2018-May-18 17:30N 30°03' W 093°16'2 3.5
2018-May-18 17:00N 30°02' W 093°15'2 3.5
2018-May-18 16:30N 30°00' W 093°14'2 3.9
2018-May-18 16:00N 29°59' W 093°12'2 4.1
2018-May-18 15:30N 29°57' W 093°11'2 3.9
2018-May-18 15:00N 29°56' W 093°09'2 4.1
2018-May-18 14:30N 29°56' W 093°07'2 3.7
2018-May-18 13:58N 29°56' W 093°04'6 4.2
2018-May-18 12:31N 29°56' W 092°57'0 4.6
2018-May-18 12:30N 29°56' W 092°57'2 3.3
2018-May-18 11:57N 29°56' W 092°55'0 1.1
2018-May-18 11:30N 29°56' W 092°55'2 4.0
2018-May-18 11:00N 29°57' W 092°53'2 4.6
2018-May-18 10:30N 29°58' W 092°50'2 4.9
2018-May-18 10:00N 29°58' W 092°47'2 4.5
2018-May-18 09:29N 29°58' W 092°45'1 2.4
2018-May-18 09:00N 29°57' W 092°43'2 3.7
2018-May-18 08:30N 29°57' W 092°42'2 3.8
2018-May-18 07:54N 29°56' W 092°39'2 4.6
2018-May-18 07:26N 29°55' W 092°37'2 4.4
2018-May-18 07:00N 29°55' W 092°35'3 4.4
2018-May-18 06:22N 29°54' W 092°31'2 4.4
2018-May-18 06:00N 29°54' W 092°30'2 4.5
2018-May-18 05:30N 29°54' W 092°27'2 4.5
2018-May-18 04:58N 29°53' W 092°24'2 4.4
2018-May-18 04:26N 29°52' W 092°22'2 3.4
2018-May-18 03:52N 29°51' W 092°20'1 2.6
2018-May-18 03:26N 29°50' W 092°19'  

Dump ship's entire track history